sensor_id;sensor_type;location;lat;lon;timestamp;pressure;altitude;pressure_sealevel;temperature;humidity
50282;BME280;36176;51.506;10.272;2023-04-30T00:02:14;100052.63;;;3.10;100.00
50282;BME280;36176;51.506;10.272;2023-04-30T00:04:41;100056.97;;;3.12;100.00
50282;BME280;36176;51.506;10.272;2023-04-30T00:07:08;100047.34;;;3.13;100.00
50282;BME280;36176;51.506;10.272;2023-04-30T00:09:35;100057.88;;;3.10;100.00
50282;BME280;36176;51.506;10.272;2023-04-30T00:12:02;100051.75;;;3.08;100.00
50282;BME280;36176;51.506;10.272;2023-04-30T00:14:29;100056.16;;;3.03;100.00
50282;BME280;36176;51.506;10.272;2023-04-30T00:16:56;100057.94;;;3.01;100.00
50282;BME280;36176;51.506;10.272;2023-04-30T00:19:23;100065.84;;;2.93;100.00
50282;BME280;36176;51.506;10.272;2023-04-30T00:21:50;100066.78;;;2.81;100.00
50282;BME280;36176;51.506;10.272;2023-04-30T00:24:17;100066.84;;;2.73;100.00
50282;BME280;36176;51.506;10.272;2023-04-30T00:26:44;100072.09;;;2.66;100.00
50282;BME280;36176;51.506;10.272;2023-04-30T00:29:11;100078.25;;;2.59;100.00
50282;BME280;36176;51.506;10.272;2023-04-30T00:31:38;100079.16;;;2.54;100.00
50282;BME280;36176;51.506;10.272;2023-04-30T00:34:05;100081.78;;;2.51;100.00
50282;BME280;36176;51.506;10.272;2023-04-30T00:36:32;100077.44;;;2.47;100.00
50282;BME280;36176;51.506;10.272;2023-04-30T00:38:59;100086.13;;;2.46;100.00
50282;BME280;36176;51.506;10.272;2023-04-30T00:41:26;100091.38;;;2.43;100.00
50282;BME280;36176;51.506;10.272;2023-04-30T00:43:54;100087.94;;;2.38;100.00
50282;BME280;36176;51.506;10.272;2023-04-30T00:46:21;100090.53;;;2.38;100.00
50282;BME280;36176;51.506;10.272;2023-04-30T00:48:48;100093.16;;;2.40;100.00
50282;BME280;36176;51.506;10.272;2023-04-30T00:51:15;100088.81;;;2.37;100.00
50282;BME280;36176;51.506;10.272;2023-04-30T00:53:42;100094.91;;;2.34;100.00
50282;BME280;36176;51.506;10.272;2023-04-30T00:56:10;100094.94;;;2.33;100.00
50282;BME280;36176;51.506;10.272;2023-04-30T00:58:39;100103.66;;;2.30;100.00
50282;BME280;36176;51.506;10.272;2023-04-30T01:01:06;100102.78;;;2.30;100.00
50282;BME280;36176;51.506;10.272;2023-04-30T01:03:33;100101.03;;;2.27;100.00
50282;BME280;36176;51.506;10.272;2023-04-30T01:06:02;100101.94;;;2.23;100.00
50282;BME280;36176;51.506;10.272;2023-04-30T01:08:29;100108.91;;;2.20;100.00
50282;BME280;36176;51.506;10.272;2023-04-30T01:11:16;100109.81;;;2.14;100.00
50282;BME280;36176;51.506;10.272;2023-04-30T01:14:09;100111.53;;;2.10;100.00
50282;BME280;36176;51.506;10.272;2023-04-30T01:16:51;100112.44;;;2.11;100.00
50282;BME280;36176;51.506;10.272;2023-04-30T01:21:58;100109.81;;;2.06;100.00
50282;BME280;36176;51.506;10.272;2023-04-30T01:24:53;100111.56;;;2.04;100.00
50282;BME280;36176;51.506;10.272;2023-04-30T01:27:55;100104.59;;;2.02;100.00
50282;BME280;36176;51.506;10.272;2023-04-30T01:30:29;100108.97;;;1.98;100.00
50282;BME280;36176;51.506;10.272;2023-04-30T01:32:57;100116.81;;;1.90;100.00
50282;BME280;36176;51.506;10.272;2023-04-30T01:35:40;100115.09;;;1.83;100.00
50282;BME280;36176;51.506;10.272;2023-04-30T01:38:23;100111.63;;;1.80;100.00
50282;BME280;36176;51.506;10.272;2023-04-30T01:40:58;100114.22;;;1.81;100.00
50282;BME280;36176;51.506;10.272;2023-04-30T01:46:27;100118.56;;;1.79;100.00
50282;BME280;36176;51.506;10.272;2023-04-30T01:49:14;100131.66;;;1.78;100.00
50282;BME280;36176;51.506;10.272;2023-04-30T01:51:45;100120.31;;;1.74;100.00
50282;BME280;36176;51.506;10.272;2023-04-30T01:54:21;100127.28;;;1.67;100.00
50282;BME280;36176;51.506;10.272;2023-04-30T01:57:03;100124.69;;;1.66;100.00
50282;BME280;36176;51.506;10.272;2023-04-30T01:59:34;100123.81;;;1.62;100.00
50282;BME280;36176;51.506;10.272;2023-04-30T02:02:02;100122.94;;;1.57;100.00
50282;BME280;36176;51.506;10.272;2023-04-30T02:04:29;100129.06;;;1.52;100.00
50282;BME280;36176;51.506;10.272;2023-04-30T02:06:56;100139.47;;;1.50;100.00
50282;BME280;36176;51.506;10.272;2023-04-30T02:09:24;100134.28;;;1.48;100.00
50282;BME280;36176;51.506;10.272;2023-04-30T02:11:51;100142.09;;;1.45;100.00
50282;BME280;36176;51.506;10.272;2023-04-30T02:14:18;100140.34;;;1.43;100.00
50282;BME280;36176;51.506;10.272;2023-04-30T02:16:45;100135.13;;;1.43;100.00
50282;BME280;36176;51.506;10.272;2023-04-30T02:19:12;100136.84;;;1.36;100.00
50282;BME280;36176;51.506;10.272;2023-04-30T02:21:39;100138.59;;;1.36;100.00
50282;BME280;36176;51.506;10.272;2023-04-30T02:24:06;100136.00;;;1.31;100.00
50282;BME280;36176;51.506;10.272;2023-04-30T02:26:33;100136.88;;;1.25;100.00
50282;BME280;36176;51.506;10.272;2023-04-30T02:29:00;100139.47;;;1.25;100.00
50282;BME280;36176;51.506;10.272;2023-04-30T02:31:27;100140.31;;;1.21;100.00
50282;BME280;36176;51.506;10.272;2023-04-30T02:33:54;100147.28;;;1.19;100.00
50282;BME280;36176;51.506;10.272;2023-04-30T02:36:21;100144.69;;;1.16;100.00
50282;BME280;36176;51.506;10.272;2023-04-30T02:38:48;100149.88;;;1.15;100.00
50282;BME280;36176;51.506;10.272;2023-04-30T02:41:15;100142.94;;;1.14;100.00
50282;BME280;36176;51.506;10.272;2023-04-30T02:43:42;100143.81;;;1.08;100.00
50282;BME280;36176;51.506;10.272;2023-04-30T02:46:09;100145.53;;;1.06;100.00
50282;BME280;36176;51.506;10.272;2023-04-30T02:48:36;100142.06;;;1.05;100.00
50282;BME280;36176;51.506;10.272;2023-04-30T02:51:03;100149.88;;;1.04;100.00
50282;BME280;36176;51.506;10.272;2023-04-30T02:53:30;100142.91;;;1.03;100.00
50282;BME280;36176;51.506;10.272;2023-04-30T02:55:57;100149.00;;;0.99;100.00
50282;BME280;36176;51.506;10.272;2023-04-30T02:58:24;100150.75;;;0.98;100.00
50282;BME280;36176;51.506;10.272;2023-04-30T03:00:52;100155.94;;;1.00;100.00
50282;BME280;36176;51.506;10.272;2023-04-30T03:03:19;100151.59;;;0.99;100.00
50282;BME280;36176;51.506;10.272;2023-04-30T03:05:46;100160.28;;;0.98;100.00
50282;BME280;36176;51.506;10.272;2023-04-30T03:08:13;100156.81;;;0.91;100.00
50282;BME280;36176;51.506;10.272;2023-04-30T03:10:40;100157.66;;;0.87;100.00
50282;BME280;36176;51.506;10.272;2023-04-30T03:13:07;100150.69;;;0.88;100.00
50282;BME280;36176;51.506;10.272;2023-04-30T03:15:34;100155.06;;;0.87;100.00
50282;BME280;36176;51.506;10.272;2023-04-30T03:18:01;100154.19;;;0.87;100.00
50282;BME280;36176;51.506;10.272;2023-04-30T03:20:29;100152.41;;;0.81;100.00
50282;BME280;36176;51.506;10.272;2023-04-30T03:22:56;100156.75;;;0.77;100.00
50282;BME280;36176;51.506;10.272;2023-04-30T03:25:23;100161.97;;;0.74;100.00
50282;BME280;36176;51.506;10.272;2023-04-30T03:27:50;100163.69;;;0.75;100.00
50282;BME280;36176;51.506;10.272;2023-04-30T03:30:17;100164.56;;;0.73;100.00
50282;BME280;36176;51.506;10.272;2023-04-30T03:32:44;100170.63;;;0.72;100.00
50282;BME280;36176;51.506;10.272;2023-04-30T03:35:11;100170.63;;;0.67;100.00
50282;BME280;36176;51.506;10.272;2023-04-30T03:37:38;100173.22;;;0.64;100.00
50282;BME280;36176;51.506;10.272;2023-04-30T03:40:06;100174.94;;;0.59;100.00
50282;BME280;36176;51.506;10.272;2023-04-30T03:42:35;100174.06;;;0.57;100.00
50282;BME280;36176;51.506;10.272;2023-04-30T03:45:02;100178.38;;;0.55;100.00
50282;BME280;36176;51.506;10.272;2023-04-30T03:47:29;100175.78;;;0.55;100.00
50282;BME280;36176;51.506;10.272;2023-04-30T03:49:56;100168.84;;;0.55;100.00
50282;BME280;36176;51.506;10.272;2023-04-30T03:52:23;100173.19;;;0.56;100.00
50282;BME280;36176;51.506;10.272;2023-04-30T03:54:50;100177.53;;;0.56;100.00
50282;BME280;36176;51.506;10.272;2023-04-30T03:57:17;100170.56;;;0.55;100.00
50282;BME280;36176;51.506;10.272;2023-04-30T03:59:44;100175.78;;;0.53;100.00
50282;BME280;36176;51.506;10.272;2023-04-30T04:02:11;100180.97;;;0.50;100.00
50282;BME280;36176;51.506;10.272;2023-04-30T04:04:38;100183.56;;;0.46;100.00
50282;BME280;36176;51.506;10.272;2023-04-30T04:07:06;100180.09;;;0.47;100.00
50282;BME280;36176;51.506;10.272;2023-04-30T04:09:35;100180.97;;;0.49;100.00
50282;BME280;36176;51.506;10.272;2023-04-30T04:12:02;100183.59;;;0.52;100.00
50282;BME280;36176;51.506;10.272;2023-04-30T04:14:29;100187.09;;;0.57;100.00
50282;BME280;36176;51.506;10.272;2023-04-30T04:16:56;100188.84;;;0.64;100.00
50282;BME280;36176;51.506;10.272;2023-04-30T04:19:26;100193.25;;;0.70;100.00
50282;BME280;36176;51.506;10.272;2023-04-30T04:21:53;100195.88;;;0.77;100.00
50282;BME280;36176;51.506;10.272;2023-04-30T04:24:20;100201.13;;;0.82;100.00
50282;BME280;36176;51.506;10.272;2023-04-30T04:26:49;100202.88;;;0.84;100.00
50282;BME280;36176;51.506;10.272;2023-04-30T04:29:17;100202.00;;;0.84;100.00
50282;BME280;36176;51.506;10.272;2023-04-30T04:31:44;100199.38;;;0.85;100.00
50282;BME280;36176;51.506;10.272;2023-04-30T04:34:11;100206.34;;;0.88;100.00
50282;BME280;36176;51.506;10.272;2023-04-30T04:36:40;100210.72;;;0.89;100.00
50282;BME280;36176;51.506;10.272;2023-04-30T04:39:07;100209.84;;;0.92;100.00
50282;BME280;36176;51.506;10.272;2023-04-30T04:41:34;100218.56;;;0.97;100.00
50282;BME280;36176;51.506;10.272;2023-04-30T04:44:02;100221.19;;;1.03;100.00
50282;BME280;36176;51.506;10.272;2023-04-30T04:46:29;100220.38;;;1.13;100.00
50282;BME280;36176;51.506;10.272;2023-04-30T04:48:57;100220.44;;;1.47;100.00
50282;BME280;36176;51.506;10.272;2023-04-30T04:51:24;100229.19;;;2.03;100.00
50282;BME280;36176;51.506;10.272;2023-04-30T04:53:51;100228.19;;;2.74;100.00
50282;BME280;36176;51.506;10.272;2023-04-30T04:56:18;100234.81;;;3.51;100.00
50282;BME280;36176;51.506;10.272;2023-04-30T04:58:45;100232.56;;;4.17;96.78
50282;BME280;36176;51.506;10.272;2023-04-30T05:01:13;100228.47;;;4.75;93.13
50282;BME280;36176;51.506;10.272;2023-04-30T05:03:40;100233.00;;;5.33;92.08
50282;BME280;36176;51.506;10.272;2023-04-30T05:06:07;100235.00;;;5.78;89.42
50282;BME280;36176;51.506;10.272;2023-04-30T05:08:34;100238.59;;;6.27;87.59
50282;BME280;36176;51.506;10.272;2023-04-30T05:11:02;100233.69;;;7.01;86.77
50282;BME280;36176;51.506;10.272;2023-04-30T05:13:29;100234.66;;;7.78;85.02
50282;BME280;36176;51.506;10.272;2023-04-30T05:15:55;100237.13;;;8.56;82.73
50282;BME280;36176;51.506;10.272;2023-04-30T05:18:23;100238.53;;;9.32;79.42
50282;BME280;36176;51.506;10.272;2023-04-30T05:20:49;100238.09;;;10.02;76.12
50282;BME280;36176;51.506;10.272;2023-04-30T05:23:16;100243.22;;;10.60;73.22
50282;BME280;36176;51.506;10.272;2023-04-30T05:25:43;100239.97;;;11.02;71.63
50282;BME280;36176;51.506;10.272;2023-04-30T05:28:11;100234.81;;;11.44;70.02
50282;BME280;36176;51.506;10.272;2023-04-30T05:30:38;100238.94;;;11.75;66.64
50282;BME280;36176;51.506;10.272;2023-04-30T05:33:05;100234.47;;;11.99;67.92
50282;BME280;36176;51.506;10.272;2023-04-30T05:35:32;100247.75;;;12.42;64.73
50282;BME280;36176;51.506;10.272;2023-04-30T05:38:02;100241.06;;;12.74;62.45
50282;BME280;36176;51.506;10.272;2023-04-30T05:40:29;100241.78;;;12.98;62.84
50282;BME280;36176;51.506;10.272;2023-04-30T05:42:56;100251.41;;;13.40;61.71
50282;BME280;36176;51.506;10.272;2023-04-30T05:45:23;100254.25;;;13.92;60.46
50282;BME280;36176;51.506;10.272;2023-04-30T05:47:50;100252.38;;;14.48;59.60
50282;BME280;36176;51.506;10.272;2023-04-30T05:50:17;100246.59;;;14.92;58.42
50282;BME280;36176;51.506;10.272;2023-04-30T05:52:44;100241.13;;;15.44;56.73
50282;BME280;36176;51.506;10.272;2023-04-30T05:55:11;100247.50;;;15.89;54.48
50282;BME280;36176;51.506;10.272;2023-04-30T05:57:39;100247.97;;;16.28;54.93
50282;BME280;36176;51.506;10.272;2023-04-30T06:00:05;100249.06;;;16.70;53.37
50282;BME280;36176;51.506;10.272;2023-04-30T06:02:32;100249.78;;;17.02;51.67
50282;BME280;36176;51.506;10.272;2023-04-30T06:05:00;100245.97;;;16.47;50.47
50282;BME280;36176;51.506;10.272;2023-04-30T06:07:28;100246.97;;;16.14;51.34
50282;BME280;36176;51.506;10.272;2023-04-30T06:09:56;100253.09;;;16.47;51.68
50282;BME280;36176;51.506;10.272;2023-04-30T06:12:23;100252.00;;;15.89;51.45
50282;BME280;36176;51.506;10.272;2023-04-30T06:14:50;100245.81;;;16.65;52.75
50282;BME280;36176;51.506;10.272;2023-04-30T06:17:17;100234.00;;;17.40;47.35
50282;BME280;36176;51.506;10.272;2023-04-30T06:19:44;100242.53;;;18.30;46.70
50282;BME280;36176;51.506;10.272;2023-04-30T06:22:11;100235.66;;;19.04;44.42
50282;BME280;36176;51.506;10.272;2023-04-30T06:24:38;100240.50;;;19.87;43.87
50282;BME280;36176;51.506;10.272;2023-04-30T06:27:05;100246.06;;;19.34;42.47
50282;BME280;36176;51.506;10.272;2023-04-30T06:29:32;100251.63;;;17.30;44.72
50282;BME280;36176;51.506;10.272;2023-04-30T06:31:58;100244.88;;;15.56;48.97
50282;BME280;36176;51.506;10.272;2023-04-30T06:34:25;100254.66;;;14.38;51.42
50282;BME280;36176;51.506;10.272;2023-04-30T06:36:52;100254.88;;;13.61;54.61
50282;BME280;36176;51.506;10.272;2023-04-30T06:39:19;100256.44;;;13.27;56.42
50282;BME280;36176;51.506;10.272;2023-04-30T06:41:46;100256.72;;;13.97;56.46
50282;BME280;36176;51.506;10.272;2023-04-30T06:44:13;100261.16;;;14.50;54.21
50282;BME280;36176;51.506;10.272;2023-04-30T06:46:40;100251.09;;;16.20;51.58
50282;BME280;36176;51.506;10.272;2023-04-30T06:49:07;100250.00;;;17.42;50.91
50282;BME280;36176;51.506;10.272;2023-04-30T06:51:34;100256.47;;;17.52;47.31
50282;BME280;36176;51.506;10.272;2023-04-30T06:54:01;100249.78;;;18.15;45.64
50282;BME280;36176;51.506;10.272;2023-04-30T06:56:28;100245.53;;;19.42;43.67
50282;BME280;36176;51.506;10.272;2023-04-30T06:58:55;100246.88;;;20.46;41.75
50282;BME280;36176;51.506;10.272;2023-04-30T07:01:22;100241.34;;;20.36;39.58
50282;BME280;36176;51.506;10.272;2023-04-30T07:03:49;100239.31;;;20.51;40.80
50282;BME280;36176;51.506;10.272;2023-04-30T07:06:18;100248.00;;;20.78;38.94
50282;BME280;36176;51.506;10.272;2023-04-30T07:08:45;100244.84;;;20.25;39.81
50282;BME280;36176;51.506;10.272;2023-04-30T07:11:12;100245.88;;;20.35;39.78
50282;BME280;36176;51.506;10.272;2023-04-30T07:13:39;100252.59;;;20.65;38.91
50282;BME280;36176;51.506;10.272;2023-04-30T07:16:06;100248.72;;;20.80;39.88
50282;BME280;36176;51.506;10.272;2023-04-30T07:18:35;100258.47;;;21.28;36.76
50282;BME280;36176;51.506;10.272;2023-04-30T07:21:02;100256.03;;;21.59;35.89
50282;BME280;36176;51.506;10.272;2023-04-30T07:23:29;100259.03;;;21.99;36.62
50282;BME280;36176;51.506;10.272;2023-04-30T07:25:56;100257.72;;;21.94;35.43
50282;BME280;36176;51.506;10.272;2023-04-30T07:28:23;100255.59;;;21.97;35.97
50282;BME280;36176;51.506;10.272;2023-04-30T07:30:50;100258.56;;;22.38;37.11
50282;BME280;36176;51.506;10.272;2023-04-30T07:33:16;100245.31;;;23.09;35.59
50282;BME280;36176;51.506;10.272;2023-04-30T07:35:43;100239.19;;;23.38;34.22
50282;BME280;36176;51.506;10.272;2023-04-30T07:38:10;100233.06;;;23.35;34.20
50282;BME280;36176;51.506;10.272;2023-04-30T07:40:37;100243.50;;;23.19;32.08
50282;BME280;36176;51.506;10.272;2023-04-30T07:43:04;100241.72;;;22.45;33.29
50282;BME280;36176;51.506;10.272;2023-04-30T07:45:31;100243.81;;;22.53;34.04
50282;BME280;36176;51.506;10.272;2023-04-30T07:47:59;100245.69;;;22.41;32.70
50282;BME280;36176;51.506;10.272;2023-04-30T07:50:26;100239.59;;;22.28;33.40
50282;BME280;36176;51.506;10.272;2023-04-30T07:52:55;100241.34;;;22.71;34.98
50282;BME280;36176;51.506;10.272;2023-04-30T07:55:22;100241.41;;;22.81;34.79
50282;BME280;36176;51.506;10.272;2023-04-30T07:57:49;100232.09;;;23.06;33.67
50282;BME280;36176;51.506;10.272;2023-04-30T08:00:16;100242.44;;;23.31;32.01
50282;BME280;36176;51.506;10.272;2023-04-30T08:02:43;100239.72;;;23.31;33.22
50282;BME280;36176;51.506;10.272;2023-04-30T08:05:11;100244.59;;;23.38;33.55
50282;BME280;36176;51.506;10.272;2023-04-30T08:07:38;100245.25;;;23.61;32.75
50282;BME280;36176;51.506;10.272;2023-04-30T08:10:05;100244.69;;;23.57;33.59
50282;BME280;36176;51.506;10.272;2023-04-30T08:12:34;100257.06;;;24.00;34.68
50282;BME280;36176;51.506;10.272;2023-04-30T08:15:02;100248.13;;;24.29;32.86
50282;BME280;36176;51.506;10.272;2023-04-30T08:17:30;100250.25;;;24.35;30.83
50282;BME280;36176;51.506;10.272;2023-04-30T08:19:58;100243.53;;;24.10;31.67
50282;BME280;36176;51.506;10.272;2023-04-30T08:22:25;100229.31;;;24.27;33.04
50282;BME280;36176;51.506;10.272;2023-04-30T08:24:52;100240.84;;;24.19;33.00
50282;BME280;36176;51.506;10.272;2023-04-30T08:27:21;100237.28;;;24.19;31.34
50282;BME280;36176;51.506;10.272;2023-04-30T08:29:48;100234.41;;;24.20;31.04
50282;BME280;36176;51.506;10.272;2023-04-30T08:32:17;100230.56;;;24.13;31.24
50282;BME280;36176;51.506;10.272;2023-04-30T08:34:44;100230.28;;;23.97;30.47
50282;BME280;36176;51.506;10.272;2023-04-30T08:37:11;100226.25;;;23.41;32.89
50282;BME280;36176;51.506;10.272;2023-04-30T08:39:38;100227.69;;;23.86;32.83
50282;BME280;36176;51.506;10.272;2023-04-30T08:42:07;100233.56;;;24.20;31.38
50282;BME280;36176;51.506;10.272;2023-04-30T08:44:34;100235.13;;;24.42;31.46
50282;BME280;36176;51.506;10.272;2023-04-30T08:47:05;100221.06;;;24.58;30.89
50282;BME280;36176;51.506;10.272;2023-04-30T08:49:32;100223.19;;;24.45;31.17
50282;BME280;36176;51.506;10.272;2023-04-30T08:52:02;100223.22;;;24.54;30.53
50282;BME280;36176;51.506;10.272;2023-04-30T08:54:29;100226.16;;;24.03;31.11
50282;BME280;36176;51.506;10.272;2023-04-30T08:56:57;100222.91;;;24.38;31.55
50282;BME280;36176;51.506;10.272;2023-04-30T08:59:24;100225.03;;;24.63;31.77
50282;BME280;36176;51.506;10.272;2023-04-30T09:01:50;100226.31;;;24.69;29.43
50282;BME280;36176;51.506;10.272;2023-04-30T09:04:19;100225.13;;;23.94;29.73
50282;BME280;36176;51.506;10.272;2023-04-30T09:06:46;100220.84;;;23.91;31.94
50282;BME280;36176;51.506;10.272;2023-04-30T09:09:14;100222.63;;;24.51;31.64
50282;BME280;36176;51.506;10.272;2023-04-30T09:11:41;100225.28;;;24.80;29.75
50282;BME280;36176;51.506;10.272;2023-04-30T09:14:08;100224.09;;;25.12;30.46
50282;BME280;36176;51.506;10.272;2023-04-30T09:16:48;100227.34;;;25.15;29.03
50282;BME280;36176;51.506;10.272;2023-04-30T09:19:22;100229.91;;;24.60;28.90
50282;BME280;36176;51.506;10.272;2023-04-30T09:21:49;100239.28;;;24.07;28.76
50282;BME280;36176;51.506;10.272;2023-04-30T09:24:16;100230.94;;;23.80;31.79
50282;BME280;36176;51.506;10.272;2023-04-30T09:26:44;100229.38;;;23.77;29.31
50282;BME280;36176;51.506;10.272;2023-04-30T09:29:13;100226.03;;;24.24;31.25
50282;BME280;36176;51.506;10.272;2023-04-30T09:31:43;100227.03;;;24.52;30.24
50282;BME280;36176;51.506;10.272;2023-04-30T09:34:11;100227.88;;;24.81;29.90
50282;BME280;36176;51.506;10.272;2023-04-30T09:36:51;100232.03;;;24.76;28.79
50282;BME280;36176;51.506;10.272;2023-04-30T09:39:20;100222.41;;;25.01;29.81
50282;BME280;36176;51.506;10.272;2023-04-30T09:41:47;100215.91;;;24.74;28.13
50282;BME280;36176;51.506;10.272;2023-04-30T09:44:28;100212.66;;;24.51;29.21
50282;BME280;36176;51.506;10.272;2023-04-30T09:46:56;100202.09;;;24.29;29.00
50282;BME280;36176;51.506;10.272;2023-04-30T09:49:26;100196.97;;;24.26;30.09
50282;BME280;36176;51.506;10.272;2023-04-30T09:51:53;100192.53;;;24.25;29.58
50282;BME280;36176;51.506;10.272;2023-04-30T09:54:23;100201.81;;;24.12;29.98
50282;BME280;36176;51.506;10.272;2023-04-30T09:56:51;100194.28;;;23.56;32.51
50282;BME280;36176;51.506;10.272;2023-04-30T09:59:20;100202.56;;;23.24;31.10
50282;BME280;36176;51.506;10.272;2023-04-30T10:01:47;100194.41;;;22.93;30.19
50282;BME280;36176;51.506;10.272;2023-04-30T10:04:15;100198.75;;;22.21;30.61
50282;BME280;36176;51.506;10.272;2023-04-30T10:06:45;100200.78;;;21.42;35.05
50282;BME280;36176;51.506;10.272;2023-04-30T10:09:12;100201.28;;;21.36;34.80
50282;BME280;36176;51.506;10.272;2023-04-30T10:11:41;100197.59;;;21.03;32.42
50282;BME280;36176;51.506;10.272;2023-04-30T10:14:12;100182.94;;;20.25;35.30
50282;BME280;36176;51.506;10.272;2023-04-30T10:16:42;100190.06;;;20.37;33.18
50282;BME280;36176;51.506;10.272;2023-04-30T10:19:11;100183.53;;;20.17;35.61
50282;BME280;36176;51.506;10.272;2023-04-30T10:21:39;100183.69;;;20.27;34.21
50282;BME280;36176;51.506;10.272;2023-04-30T10:24:08;100171.03;;;20.52;32.53
50282;BME280;36176;51.506;10.272;2023-04-30T10:26:35;100175.91;;;20.82;32.75
50282;BME280;36176;51.506;10.272;2023-04-30T10:29:02;100176.75;;;20.94;33.62
50282;BME280;36176;51.506;10.272;2023-04-30T10:31:29;100168.56;;;20.84;33.74
50282;BME280;36176;51.506;10.272;2023-04-30T10:34:04;100176.63;;;20.37;35.17
50282;BME280;36176;51.506;10.272;2023-04-30T10:36:36;100161.47;;;20.36;33.11
50282;BME280;36176;51.506;10.272;2023-04-30T10:39:04;100164.34;;;20.22;34.68
50282;BME280;36176;51.506;10.272;2023-04-30T10:41:31;100163.91;;;20.39;35.57
50282;BME280;36176;51.506;10.272;2023-04-30T10:44:00;100157.88;;;20.60;38.07
50282;BME280;36176;51.506;10.272;2023-04-30T10:46:28;100155.81;;;20.75;36.25
50282;BME280;36176;51.506;10.272;2023-04-30T10:48:55;100152.63;;;20.70;34.73
50282;BME280;36176;51.506;10.272;2023-04-30T10:51:22;100144.78;;;20.55;34.60
50282;BME280;36176;51.506;10.272;2023-04-30T10:53:51;100145.28;;;20.60;35.23
50282;BME280;36176;51.506;10.272;2023-04-30T10:56:29;100146.69;;;20.53;34.83
50282;BME280;36176;51.506;10.272;2023-04-30T10:59:00;100137.56;;;20.21;34.47
50282;BME280;36176;51.506;10.272;2023-04-30T11:01:28;100131.41;;;20.07;35.21
50282;BME280;36176;51.506;10.272;2023-04-30T11:04:05;100136.91;;;20.06;33.49
50282;BME280;36176;51.506;10.272;2023-04-30T11:09:18;100132.03;;;20.11;34.70
50282;BME280;36176;51.506;10.272;2023-04-30T11:11:45;100126.63;;;20.46;32.75
50282;BME280;36176;51.506;10.272;2023-04-30T11:14:15;100122.16;;;21.03;35.06
50282;BME280;36176;51.506;10.272;2023-04-30T11:16:48;100128.97;;;21.30;34.16
50282;BME280;36176;51.506;10.272;2023-04-30T11:19:17;100117.94;;;21.33;31.55
50282;BME280;36176;51.506;10.272;2023-04-30T11:24:48;100113.81;;;21.06;32.81
50282;BME280;36176;51.506;10.272;2023-04-30T11:27:18;100116.00;;;21.23;33.12
50282;BME280;36176;51.506;10.272;2023-04-30T11:29:45;100117.34;;;21.29;34.18
50282;BME280;36176;51.506;10.272;2023-04-30T11:32:13;100113.41;;;21.56;34.68
50282;BME280;36176;51.506;10.272;2023-04-30T11:34:40;100107.44;;;21.41;33.38
50282;BME280;36176;51.506;10.272;2023-04-30T11:37:08;100109.38;;;21.39;34.36
50282;BME280;36176;51.506;10.272;2023-04-30T11:39:37;100110.34;;;21.38;34.33
50282;BME280;36176;51.506;10.272;2023-04-30T11:42:05;100106.00;;;21.03;34.63
50282;BME280;36176;51.506;10.272;2023-04-30T11:44:32;100116.03;;;20.90;33.88
50282;BME280;36176;51.506;10.272;2023-04-30T11:47:00;100109.25;;;21.29;33.08
50282;BME280;36176;51.506;10.272;2023-04-30T11:49:27;100103.03;;;20.95;32.31
50282;BME280;36176;51.506;10.272;2023-04-30T11:51:54;100101.97;;;20.17;34.12
50282;BME280;36176;51.506;10.272;2023-04-30T11:54:21;100094.28;;;19.64;34.98
50282;BME280;36176;51.506;10.272;2023-04-30T11:56:48;100091.16;;;19.94;34.04
50282;BME280;36176;51.506;10.272;2023-04-30T11:59:15;100101.47;;;20.23;33.94
50282;BME280;36176;51.506;10.272;2023-04-30T12:01:42;100090.22;;;20.18;35.85
50282;BME280;36176;51.506;10.272;2023-04-30T12:04:09;100096.72;;;20.27;38.48
50282;BME280;36176;51.506;10.272;2023-04-30T12:06:36;100087.34;;;20.44;35.57
50282;BME280;36176;51.506;10.272;2023-04-30T12:09:03;100089.22;;;20.54;36.04
50282;BME280;36176;51.506;10.272;2023-04-30T12:11:33;100086.75;;;20.40;37.39
50282;BME280;36176;51.506;10.272;2023-04-30T12:14:04;100083.38;;;20.25;37.72
50282;BME280;36176;51.506;10.272;2023-04-30T12:16:40;100080.69;;;20.25;35.74
50282;BME280;36176;51.506;10.272;2023-04-30T12:19:07;100085.13;;;20.37;38.43
50282;BME280;36176;51.506;10.272;2023-04-30T12:21:35;100076.81;;;20.29;35.23
50282;BME280;36176;51.506;10.272;2023-04-30T12:24:03;100085.63;;;20.43;37.50
50282;BME280;36176;51.506;10.272;2023-04-30T12:26:36;100073.22;;;20.64;37.48
50282;BME280;36176;51.506;10.272;2023-04-30T12:29:09;100071.97;;;20.79;37.03
50282;BME280;36176;51.506;10.272;2023-04-30T12:31:39;100073.28;;;21.08;37.38
50282;BME280;36176;51.506;10.272;2023-04-30T12:34:07;100074.88;;;20.99;36.02
50282;BME280;36176;51.506;10.272;2023-04-30T12:36:34;100071.22;;;20.66;36.47
50282;BME280;36176;51.506;10.272;2023-04-30T12:39:05;100068.66;;;20.87;38.25
50282;BME280;36176;51.506;10.272;2023-04-30T12:41:38;100059.34;;;21.02;37.99
50282;BME280;36176;51.506;10.272;2023-04-30T12:44:13;100068.38;;;21.13;35.93
50282;BME280;36176;51.506;10.272;2023-04-30T12:46:40;100056.28;;;20.96;38.43
50282;BME280;36176;51.506;10.272;2023-04-30T12:49:08;100055.06;;;20.89;36.36
50282;BME280;36176;51.506;10.272;2023-04-30T12:51:37;100056.66;;;20.91;36.01
50282;BME280;36176;51.506;10.272;2023-04-30T12:54:06;100051.31;;;20.69;36.38
50282;BME280;36176;51.506;10.272;2023-04-30T12:56:33;100045.97;;;20.45;35.24
50282;BME280;36176;51.506;10.272;2023-04-30T12:59:01;100054.19;;;20.43;37.14